sensor_id;sensor_type;location;lat;lon;timestamp;pressure;altitude;pressure_sealevel;temperature;humidity
47716;BME280;33476;50.984;3.538;2023-01-15T00:00:50;100111.97;;;10.98;61.02
47716;BME280;33476;50.984;3.538;2023-01-15T00:03:16;100108.34;;;11.01;60.85
47716;BME280;33476;50.984;3.538;2023-01-15T00:05:42;100109.91;;;11.03;60.81
47716;BME280;33476;50.984;3.538;2023-01-15T00:08:07;100109.06;;;11.03;60.55
47716;BME280;33476;50.984;3.538;2023-01-15T00:10:33;100116.25;;;10.99;60.95
47716;BME280;33476;50.984;3.538;2023-01-15T00:12:59;100128.66;;;10.95;60.86
47716;BME280;33476;50.984;3.538;2023-01-15T00:15:24;100125.56;;;10.89;60.49
47716;BME280;33476;50.984;3.538;2023-01-15T00:17:49;100127.44;;;10.87;60.79
47716;BME280;33476;50.984;3.538;2023-01-15T00:20:15;100120.25;;;10.90;60.88
47716;BME280;33476;50.984;3.538;2023-01-15T00:22:40;100119.31;;;10.91;60.92
47716;BME280;33476;50.984;3.538;2023-01-15T00:25:06;100123.53;;;10.94;60.55
47716;BME280;33476;50.984;3.538;2023-01-15T00:27:50;100126.88;;;10.96;60.34
47716;BME280;33476;50.984;3.538;2023-01-15T00:30:16;100122.69;;;10.93;60.52
47716;BME280;33476;50.984;3.538;2023-01-15T00:32:42;100123.81;;;10.89;60.45
47716;BME280;33476;50.984;3.538;2023-01-15T00:35:26;100120.16;;;10.78;60.50
47716;BME280;33476;50.984;3.538;2023-01-15T00:37:52;100119.72;;;10.85;60.32
47716;BME280;33476;50.984;3.538;2023-01-15T00:40:19;100120.72;;;10.83;60.22
47716;BME280;33476;50.984;3.538;2023-01-15T00:42:44;100118.28;;;10.80;60.07
47716;BME280;33476;50.984;3.538;2023-01-15T00:45:10;100116.41;;;10.82;59.99
47716;BME280;33476;50.984;3.538;2023-01-15T00:47:47;100120.06;;;10.79;59.85
47716;BME280;33476;50.984;3.538;2023-01-15T00:50:16;100125.00;;;10.84;59.95
47716;BME280;33476;50.984;3.538;2023-01-15T00:52:41;100126.22;;;10.78;59.57
47716;BME280;33476;50.984;3.538;2023-01-15T00:55:07;100131.63;;;10.75;59.40
47716;BME280;33476;50.984;3.538;2023-01-15T00:57:33;100128.34;;;10.72;59.42
47716;BME280;33476;50.984;3.538;2023-01-15T01:00:01;100121.56;;;10.69;59.54
47716;BME280;33476;50.984;3.538;2023-01-15T01:02:30;100118.16;;;10.67;59.38
47716;BME280;33476;50.984;3.538;2023-01-15T01:04:55;100105.97;;;10.67;59.52
47716;BME280;33476;50.984;3.538;2023-01-15T01:07:23;100116.97;;;10.73;59.25
47716;BME280;33476;50.984;3.538;2023-01-15T01:09:49;100112.44;;;10.76;59.11
47716;BME280;33476;50.984;3.538;2023-01-15T01:12:17;100120.06;;;10.79;58.92
47716;BME280;33476;50.984;3.538;2023-01-15T01:14:42;100121.16;;;10.75;58.96
47716;BME280;33476;50.984;3.538;2023-01-15T01:17:08;100113.81;;;10.67;58.91
47716;BME280;33476;50.984;3.538;2023-01-15T01:19:35;100121.66;;;10.67;59.02
47716;BME280;33476;50.984;3.538;2023-01-15T01:22:00;100126.78;;;10.69;59.04
47716;BME280;33476;50.984;3.538;2023-01-15T01:24:31;100126.09;;;10.65;58.92
47716;BME280;33476;50.984;3.538;2023-01-15T01:26:56;100121.72;;;10.66;58.88
47716;BME280;33476;50.984;3.538;2023-01-15T01:29:24;100117.44;;;10.65;58.95
47716;BME280;33476;50.984;3.538;2023-01-15T01:31:55;100119.19;;;10.64;58.62
47716;BME280;33476;50.984;3.538;2023-01-15T01:34:20;100114.81;;;10.65;58.98
47716;BME280;33476;50.984;3.538;2023-01-15T01:36:48;100114.06;;;10.63;58.77
47716;BME280;33476;50.984;3.538;2023-01-15T01:39:16;100125.72;;;10.57;58.99
47716;BME280;33476;50.984;3.538;2023-01-15T01:41:43;100130.53;;;10.49;59.32
47716;BME280;33476;50.984;3.538;2023-01-15T01:46:56;100112.66;;;10.57;59.36
47716;BME280;33476;50.984;3.538;2023-01-15T01:49:21;100116.09;;;10.58;59.16
47716;BME280;33476;50.984;3.538;2023-01-15T01:52:03;100110.44;;;10.51;59.31
47716;BME280;33476;50.984;3.538;2023-01-15T01:54:31;100118.06;;;10.54;59.20
47716;BME280;33476;50.984;3.538;2023-01-15T01:56:57;100115.72;;;10.50;59.40
47716;BME280;33476;50.984;3.538;2023-01-15T01:59:26;100105.56;;;10.45;59.54
47716;BME280;33476;50.984;3.538;2023-01-15T02:01:51;100119.44;;;10.46;59.50
47716;BME280;33476;50.984;3.538;2023-01-15T02:04:19;100108.28;;;10.44;59.42
47716;BME280;33476;50.984;3.538;2023-01-15T02:06:45;100110.88;;;10.44;59.51
47716;BME280;33476;50.984;3.538;2023-01-15T02:09:10;100109.94;;;10.45;59.05
47716;BME280;33476;50.984;3.538;2023-01-15T02:11:41;100113.56;;;10.42;59.17
47716;BME280;33476;50.984;3.538;2023-01-15T02:14:14;100115.16;;;10.45;59.04
47716;BME280;33476;50.984;3.538;2023-01-15T02:16:48;100110.78;;;10.45;59.00
47716;BME280;33476;50.984;3.538;2023-01-15T02:19:33;100122.06;;;10.46;59.25
47716;BME280;33476;50.984;3.538;2023-01-15T02:25:48;100113.50;;;10.44;59.06
47716;BME280;33476;50.984;3.538;2023-01-15T02:28:23;100117.78;;;10.45;58.74
47716;BME280;33476;50.984;3.538;2023-01-15T02:31:23;100111.97;;;10.39;58.88
47716;BME280;33476;50.984;3.538;2023-01-15T02:33:57;100119.91;;;10.38;58.84
47716;BME280;33476;50.984;3.538;2023-01-15T02:36:30;100120.84;;;10.37;58.72
47716;BME280;33476;50.984;3.538;2023-01-15T02:39:02;100126.06;;;10.37;58.76
47716;BME280;33476;50.984;3.538;2023-01-15T02:41:33;100122.59;;;10.36;58.40
47716;BME280;33476;50.984;3.538;2023-01-15T02:44:01;100125.38;;;10.33;58.43
47716;BME280;33476;50.984;3.538;2023-01-15T02:46:31;100128.44;;;10.26;58.38
47716;BME280;33476;50.984;3.538;2023-01-15T02:48:59;100126.84;;;10.23;58.36
47716;BME280;33476;50.984;3.538;2023-01-15T02:51:32;100122.72;;;10.19;58.31
47716;BME280;33476;50.984;3.538;2023-01-15T02:54:02;100113.94;;;10.20;58.15
47716;BME280;33476;50.984;3.538;2023-01-15T02:56:33;100123.19;;;10.26;58.13
47716;BME280;33476;50.984;3.538;2023-01-15T02:59:05;100112.69;;;10.27;58.06
47716;BME280;33476;50.984;3.538;2023-01-15T03:01:42;100114.63;;;10.24;57.90
47716;BME280;33476;50.984;3.538;2023-01-15T03:04:14;100117.41;;;10.21;57.90
47716;BME280;33476;50.984;3.538;2023-01-15T03:06:55;100118.22;;;10.21;58.11
47716;BME280;33476;50.984;3.538;2023-01-15T03:09:26;100127.84;;;10.21;57.83
47716;BME280;33476;50.984;3.538;2023-01-15T03:12:03;100125.31;;;10.19;58.22
47716;BME280;33476;50.984;3.538;2023-01-15T03:14:35;100115.72;;;10.20;57.79
47716;BME280;33476;50.984;3.538;2023-01-15T03:17:12;100119.41;;;10.16;57.36
47716;BME280;33476;50.984;3.538;2023-01-15T03:19:53;100121.47;;;10.10;57.76
47716;BME280;33476;50.984;3.538;2023-01-15T03:22:48;100118.84;;;10.10;58.13
47716;BME280;33476;50.984;3.538;2023-01-15T03:25:28;100108.97;;;10.16;57.85
47716;BME280;33476;50.984;3.538;2023-01-15T03:27:57;100118.41;;;10.18;57.59
47716;BME280;33476;50.984;3.538;2023-01-15T03:30:26;100120.16;;;10.18;57.87
47716;BME280;33476;50.984;3.538;2023-01-15T03:32:54;100125.66;;;10.13;57.29
47716;BME280;33476;50.984;3.538;2023-01-15T03:38:16;100127.78;;;10.06;57.81
47716;BME280;33476;50.984;3.538;2023-01-15T03:40:59;100132.06;;;10.07;57.57
47716;BME280;33476;50.984;3.538;2023-01-15T03:57:35;100131.50;;;9.87;58.56
47716;BME280;33476;50.984;3.538;2023-01-15T04:00:14;100141.16;;;9.84;58.98
47716;BME280;33476;50.984;3.538;2023-01-15T04:02:43;100140.00;;;9.90;58.78
47716;BME280;33476;50.984;3.538;2023-01-15T04:05:10;100143.28;;;9.94;58.95
47716;BME280;33476;50.984;3.538;2023-01-15T04:07:38;100137.28;;;9.92;58.63
47716;BME280;33476;50.984;3.538;2023-01-15T04:10:09;100139.91;;;9.92;58.63
47716;BME280;33476;50.984;3.538;2023-01-15T04:12:34;100140.59;;;9.95;58.67
47716;BME280;33476;50.984;3.538;2023-01-15T04:15:03;100144.88;;;9.96;58.96
47716;BME280;33476;50.984;3.538;2023-01-15T04:17:28;100150.69;;;10.01;58.78
47716;BME280;33476;50.984;3.538;2023-01-15T04:19:54;100149.06;;;9.99;59.11
47716;BME280;33476;50.984;3.538;2023-01-15T04:22:19;100149.91;;;9.99;59.12
47716;BME280;33476;50.984;3.538;2023-01-15T04:24:46;100153.22;;;10.03;58.42
47716;BME280;33476;50.984;3.538;2023-01-15T04:27:15;100155.13;;;9.99;58.69
47716;BME280;33476;50.984;3.538;2023-01-15T04:29:40;100150.69;;;9.85;59.31
47716;BME280;33476;50.984;3.538;2023-01-15T04:32:08;100134.88;;;9.89;59.34
47716;BME280;33476;50.984;3.538;2023-01-15T04:34:34;100141.44;;;9.96;59.33
47716;BME280;33476;50.984;3.538;2023-01-15T04:37:00;100146.75;;;9.94;59.31
47716;BME280;33476;50.984;3.538;2023-01-15T04:39:25;100152.78;;;9.95;59.27
47716;BME280;33476;50.984;3.538;2023-01-15T04:41:50;100160.94;;;9.89;59.60
47716;BME280;33476;50.984;3.538;2023-01-15T04:44:35;100154.16;;;9.86;59.56
47716;BME280;33476;50.984;3.538;2023-01-15T04:47:00;100141.09;;;9.86;59.88
47716;BME280;33476;50.984;3.538;2023-01-15T04:49:26;100137.81;;;9.82;59.83
47716;BME280;33476;50.984;3.538;2023-01-15T04:51:51;100136.41;;;9.77;59.81
47716;BME280;33476;50.984;3.538;2023-01-15T04:54:17;100141.53;;;9.78;60.13
47716;BME280;33476;50.984;3.538;2023-01-15T04:56:48;100151.03;;;9.79;59.81
47716;BME280;33476;50.984;3.538;2023-01-15T04:59:16;100140.31;;;9.84;59.83
47716;BME280;33476;50.984;3.538;2023-01-15T05:01:41;100135.88;;;9.86;60.13
47716;BME280;33476;50.984;3.538;2023-01-15T05:04:07;100131.50;;;9.87;60.27
47716;BME280;33476;50.984;3.538;2023-01-15T05:06:35;100133.19;;;9.88;60.26
47716;BME280;33476;50.984;3.538;2023-01-15T05:09:01;100118.38;;;9.88;60.08
47716;BME280;33476;50.984;3.538;2023-01-15T05:11:27;100115.44;;;9.78;60.61
47716;BME280;33476;50.984;3.538;2023-01-15T05:13:53;100108.56;;;9.77;60.70
47716;BME280;33476;50.984;3.538;2023-01-15T05:16:24;100116.63;;;9.73;60.61
47716;BME280;33476;50.984;3.538;2023-01-15T05:18:52;100121.94;;;9.71;60.73
47716;BME280;33476;50.984;3.538;2023-01-15T05:21:23;100130.78;;;9.69;60.69
47716;BME280;33476;50.984;3.538;2023-01-15T05:23:54;100117.31;;;9.61;60.44
47716;BME280;33476;50.984;3.538;2023-01-15T05:26:22;100121.50;;;9.63;60.44
47716;BME280;33476;50.984;3.538;2023-01-15T05:28:48;100129.75;;;9.55;60.66
47716;BME280;33476;50.984;3.538;2023-01-15T05:31:16;100130.91;;;9.50;60.62
47716;BME280;33476;50.984;3.538;2023-01-15T05:33:44;100119.81;;;9.46;61.16
47716;BME280;33476;50.984;3.538;2023-01-15T05:36:22;100129.50;;;9.44;60.96
47716;BME280;33476;50.984;3.538;2023-01-15T05:38:48;100134.72;;;9.44;60.93
47716;BME280;33476;50.984;3.538;2023-01-15T05:41:15;100138.06;;;9.46;61.13
47716;BME280;33476;50.984;3.538;2023-01-15T05:44:01;100147.47;;;9.49;60.61
47716;BME280;33476;50.984;3.538;2023-01-15T05:46:27;100145.97;;;9.45;60.92
47716;BME280;33476;50.984;3.538;2023-01-15T05:48:53;100145.16;;;9.44;60.69
47716;BME280;33476;50.984;3.538;2023-01-15T05:51:21;100147.91;;;9.41;60.85
47716;BME280;33476;50.984;3.538;2023-01-15T05:53:46;100158.50;;;9.38;60.91
47716;BME280;33476;50.984;3.538;2023-01-15T05:56:12;100155.88;;;9.38;60.84
47716;BME280;33476;50.984;3.538;2023-01-15T05:58:37;100163.72;;;9.38;61.19
47716;BME280;33476;50.984;3.538;2023-01-15T06:01:07;100170.78;;;9.36;61.86
47716;BME280;33476;50.984;3.538;2023-01-15T06:03:33;100170.59;;;9.39;61.40
47716;BME280;33476;50.984;3.538;2023-01-15T06:05:58;100157.78;;;9.35;61.99
47716;BME280;33476;50.984;3.538;2023-01-15T06:08:23;100154.69;;;9.28;61.98
47716;BME280;33476;50.984;3.538;2023-01-15T06:10:52;100154.94;;;9.23;62.33
47716;BME280;33476;50.984;3.538;2023-01-15T06:13:17;100150.66;;;9.22;62.54
47716;BME280;33476;50.984;3.538;2023-01-15T06:15:43;100148.22;;;9.19;62.19
47716;BME280;33476;50.984;3.538;2023-01-15T06:18:09;100144.47;;;9.08;62.36
47716;BME280;33476;50.984;3.538;2023-01-15T06:20:35;100150.09;;;9.00;62.50
47716;BME280;33476;50.984;3.538;2023-01-15T06:23:01;100143.81;;;9.04;62.39
47716;BME280;33476;50.984;3.538;2023-01-15T06:25:26;100148.31;;;9.00;62.66
47716;BME280;33476;50.984;3.538;2023-01-15T06:27:54;100159.56;;;9.01;62.31
47716;BME280;33476;50.984;3.538;2023-01-15T06:30:23;100157.13;;;8.98;62.02
47716;BME280;33476;50.984;3.538;2023-01-15T06:32:48;100158.72;;;9.00;61.92
47716;BME280;33476;50.984;3.538;2023-01-15T06:35:13;100165.56;;;9.03;62.01
47716;BME280;33476;50.984;3.538;2023-01-15T06:37:44;100160.19;;;9.06;62.01
47716;BME280;33476;50.984;3.538;2023-01-15T06:40:12;100160.94;;;9.08;61.71
47716;BME280;33476;50.984;3.538;2023-01-15T06:42:40;100165.31;;;9.08;61.95
47716;BME280;33476;50.984;3.538;2023-01-15T06:45:32;100166.50;;;9.02;62.08
47716;BME280;33476;50.984;3.538;2023-01-15T06:48:19;100176.75;;;9.05;61.50
47716;BME280;33476;50.984;3.538;2023-01-15T06:50:55;100174.44;;;8.99;61.39
47716;BME280;33476;50.984;3.538;2023-01-15T06:53:23;100181.50;;;8.97;61.67
47716;BME280;33476;50.984;3.538;2023-01-15T06:55:48;100178.06;;;8.96;62.17
47716;BME280;33476;50.984;3.538;2023-01-15T06:58:17;100188.63;;;8.93;62.01
47716;BME280;33476;50.984;3.538;2023-01-15T07:00:45;100188.13;;;8.87;61.92
47716;BME280;33476;50.984;3.538;2023-01-15T07:03:17;100192.31;;;8.89;62.08
47716;BME280;33476;50.984;3.538;2023-01-15T07:05:43;100196.44;;;8.93;62.04
47716;BME280;33476;50.984;3.538;2023-01-15T07:08:08;100187.78;;;8.93;61.39
47716;BME280;33476;50.984;3.538;2023-01-15T07:10:34;100186.09;;;8.92;61.67
47716;BME280;33476;50.984;3.538;2023-01-15T07:12:59;100191.56;;;8.87;61.80
47716;BME280;33476;50.984;3.538;2023-01-15T07:15:25;100190.09;;;8.82;61.49
47716;BME280;33476;50.984;3.538;2023-01-15T07:17:54;100185.13;;;8.77;61.55
47716;BME280;33476;50.984;3.538;2023-01-15T07:20:22;100192.94;;;8.77;61.64
47716;BME280;33476;50.984;3.538;2023-01-15T07:22:48;100199.06;;;8.76;61.40
47716;BME280;33476;50.984;3.538;2023-01-15T07:25:22;100202.56;;;8.75;61.32
47716;BME280;33476;50.984;3.538;2023-01-15T07:27:47;100204.34;;;8.75;61.21
47716;BME280;33476;50.984;3.538;2023-01-15T07:30:18;100206.03;;;8.76;61.00
47716;BME280;33476;50.984;3.538;2023-01-15T07:32:43;100215.59;;;8.75;61.09
47716;BME280;33476;50.984;3.538;2023-01-15T07:35:12;100211.47;;;8.71;61.01
47716;BME280;33476;50.984;3.538;2023-01-15T07:37:37;100209.84;;;8.68;60.46
47716;BME280;33476;50.984;3.538;2023-01-15T07:40:15;100210.75;;;8.67;60.32
47716;BME280;33476;50.984;3.538;2023-01-15T07:42:40;100216.75;;;8.69;60.04
47716;BME280;33476;50.984;3.538;2023-01-15T07:45:24;100218.44;;;8.70;60.40
47716;BME280;33476;50.984;3.538;2023-01-15T07:48:09;100218.44;;;8.70;60.04
47716;BME280;33476;50.984;3.538;2023-01-15T07:50:53;100215.84;;;8.70;60.17
47716;BME280;33476;50.984;3.538;2023-01-15T07:53:24;100213.63;;;8.63;60.63
47716;BME280;33476;50.984;3.538;2023-01-15T07:55:52;100206.03;;;8.58;59.92
47716;BME280;33476;50.984;3.538;2023-01-15T07:58:21;100198.38;;;8.55;60.39
47716;BME280;33476;50.984;3.538;2023-01-15T08:00:46;100202.66;;;8.56;60.04
47716;BME280;33476;50.984;3.538;2023-01-15T08:03:12;100193.47;;;8.49;59.70
47716;BME280;33476;50.984;3.538;2023-01-15T08:05:40;100192.69;;;8.47;60.31
47716;BME280;33476;50.984;3.538;2023-01-15T08:08:13;100188.25;;;8.49;59.65
47716;BME280;33476;50.984;3.538;2023-01-15T08:10:41;100192.47;;;8.52;59.72
47716;BME280;33476;50.984;3.538;2023-01-15T08:13:25;100182.50;;;8.60;58.96
47716;BME280;33476;50.984;3.538;2023-01-15T08:16:09;100183.81;;;8.68;59.24
47716;BME280;33476;50.984;3.538;2023-01-15T08:18:38;100199.28;;;8.71;58.91
47716;BME280;33476;50.984;3.538;2023-01-15T08:21:12;100201.66;;;8.76;59.01
47716;BME280;33476;50.984;3.538;2023-01-15T08:23:41;100205.56;;;8.85;58.55
47716;BME280;33476;50.984;3.538;2023-01-15T08:26:13;100200.44;;;8.83;57.90
47716;BME280;33476;50.984;3.538;2023-01-15T08:28:41;100196.91;;;8.84;57.98
47716;BME280;33476;50.984;3.538;2023-01-15T08:31:06;100191.63;;;8.86;57.76
47716;BME280;33476;50.984;3.538;2023-01-15T08:33:32;100178.53;;;8.87;57.94
47716;BME280;33476;50.984;3.538;2023-01-15T08:35:58;100164.59;;;8.88;57.92
47716;BME280;33476;50.984;3.538;2023-01-15T08:38:32;100160.91;;;8.92;57.61
47716;BME280;33476;50.984;3.538;2023-01-15T08:40:57;100165.13;;;8.95;57.46
47716;BME280;33476;50.984;3.538;2023-01-15T08:43:26;100166.81;;;8.96;57.92
47716;BME280;33476;50.984;3.538;2023-01-15T08:45:55;100170.44;;;9.09;57.52
47716;BME280;33476;50.984;3.538;2023-01-15T08:48:22;100186.72;;;9.30;56.78
47716;BME280;33476;50.984;3.538;2023-01-15T08:50:50;100201.16;;;9.53;56.60
47716;BME280;33476;50.984;3.538;2023-01-15T08:53:16;100192.34;;;9.87;56.07
47716;BME280;33476;50.984;3.538;2023-01-15T08:55:43;100201.75;;;10.21;55.81
47716;BME280;33476;50.984;3.538;2023-01-15T08:58:15;100209.53;;;10.68;54.81
47716;BME280;33476;50.984;3.538;2023-01-15T09:00:41;100201.47;;;11.16;53.55
47716;BME280;33476;50.984;3.538;2023-01-15T09:03:09;100206.50;;;11.33;53.28
47716;BME280;33476;50.984;3.538;2023-01-15T09:05:36;100229.13;;;11.20;53.34
47716;BME280;33476;50.984;3.538;2023-01-15T09:08:03;100239.28;;;10.80;54.08
47716;BME280;33476;50.984;3.538;2023-01-15T09:10:33;100237.63;;;10.33;55.08
47716;BME280;33476;50.984;3.538;2023-01-15T09:13:00;100238.94;;;10.09;55.83
47716;BME280;33476;50.984;3.538;2023-01-15T09:15:29;100237.19;;;9.78;56.44
47716;BME280;33476;50.984;3.538;2023-01-15T09:17:55;100223.44;;;9.74;57.04
47716;BME280;33476;50.984;3.538;2023-01-15T09:20:21;100244.75;;;9.82;56.72
47716;BME280;33476;50.984;3.538;2023-01-15T09:22:50;100234.41;;;10.12;56.44
47716;BME280;33476;50.984;3.538;2023-01-15T09:25:15;100251.75;;;10.61;54.99
47716;BME280;33476;50.984;3.538;2023-01-15T09:27:43;100245.50;;;11.08;53.89
47716;BME280;33476;50.984;3.538;2023-01-15T09:30:29;100244.97;;;11.03;53.76
47716;BME280;33476;50.984;3.538;2023-01-15T09:32:54;100252.75;;;10.88;54.13
47716;BME280;33476;50.984;3.538;2023-01-15T09:35:20;100256.50;;;10.98;53.74
47716;BME280;33476;50.984;3.538;2023-01-15T09:37:50;100256.19;;;10.59;54.35
47716;BME280;33476;50.984;3.538;2023-01-15T09:40:50;100263.97;;;10.13;55.75
47716;BME280;33476;50.984;3.538;2023-01-15T09:43:49;100269.50;;;9.91;56.57
47716;BME280;33476;50.984;3.538;2023-01-15T09:46:24;100265.28;;;9.89;56.64
47716;BME280;33476;50.984;3.538;2023-01-15T09:49:09;100256.53;;;9.90;56.92
47716;BME280;33476;50.984;3.538;2023-01-15T09:51:58;100233.16;;;10.35;56.41
47716;BME280;33476;50.984;3.538;2023-01-15T09:57:13;100250.50;;;13.44;49.10
47716;BME280;33476;50.984;3.538;2023-01-15T09:59:46;100232.25;;;16.12;43.31
47716;BME280;33476;50.984;3.538;2023-01-15T10:02:28;100228.28;;;17.75;40.48
47716;BME280;33476;50.984;3.538;2023-01-15T10:05:08;100237.34;;;18.61;38.58
47716;BME280;33476;50.984;3.538;2023-01-15T10:07:40;100241.94;;;18.59;38.49
47716;BME280;33476;50.984;3.538;2023-01-15T10:10:13;100241.75;;;18.12;39.07
47716;BME280;33476;50.984;3.538;2023-01-15T10:12:43;100260.09;;;18.04;39.43
47716;BME280;33476;50.984;3.538;2023-01-15T10:17:47;100255.97;;;19.18;37.37
47716;BME280;33476;50.984;3.538;2023-01-15T10:20:15;100249.16;;;19.15;37.16
47716;BME280;33476;50.984;3.538;2023-01-15T10:23:32;100255.09;;;19.46;36.43
47716;BME280;33476;50.984;3.538;2023-01-15T10:28:30;100267.00;;;15.04;44.04
47716;BME280;33476;50.984;3.538;2023-01-15T10:31:01;100274.53;;;13.51;47.32
47716;BME280;33476;50.984;3.538;2023-01-15T10:36:39;100284.34;;;11.87;51.69
47716;BME280;33476;50.984;3.538;2023-01-15T10:39:22;100272.19;;;11.43;52.85
47716;BME280;33476;50.984;3.538;2023-01-15T10:42:29;100283.72;;;11.10;53.71
47716;BME280;33476;50.984;3.538;2023-01-15T10:45:15;100276.53;;;10.84;54.91
47716;BME280;33476;50.984;3.538;2023-01-15T10:47:44;100271.69;;;10.92;54.97
47716;BME280;33476;50.984;3.538;2023-01-15T10:50:21;100280.06;;;11.13;54.32
47716;BME280;33476;50.984;3.538;2023-01-15T10:53:14;100280.91;;;10.83;54.61
47716;BME280;33476;50.984;3.538;2023-01-15T10:55:51;100279.31;;;11.11;54.47
47716;BME280;33476;50.984;3.538;2023-01-15T11:01:24;100287.50;;;10.75;54.87
47716;BME280;33476;50.984;3.538;2023-01-15T11:03:50;100275.50;;;10.56;55.47
47716;BME280;33476;50.984;3.538;2023-01-15T11:06:22;100283.94;;;10.46;55.81
47716;BME280;33476;50.984;3.538;2023-01-15T11:08:51;100287.06;;;10.52;55.77
47716;BME280;33476;50.984;3.538;2023-01-15T11:11:24;100284.25;;;10.55;55.79
47716;BME280;33476;50.984;3.538;2023-01-15T11:14:08;100272.25;;;10.67;55.80
47716;BME280;33476;50.984;3.538;2023-01-15T11:16:52;100284.44;;;10.82;55.13
47716;BME280;33476;50.984;3.538;2023-01-15T11:19:37;100271.78;;;10.90;54.90
47716;BME280;33476;50.984;3.538;2023-01-15T11:22:16;100275.16;;;10.62;55.77
47716;BME280;33476;50.984;3.538;2023-01-15T11:27:17;100264.78;;;11.21;55.14
47716;BME280;33476;50.984;3.538;2023-01-15T11:29:53;100257.53;;;11.69;54.29
47716;BME280;33476;50.984;3.538;2023-01-15T11:32:28;100254.66;;;12.15;53.34
47716;BME280;33476;50.984;3.538;2023-01-15T11:34:58;100254.09;;;12.24;52.89
47716;BME280;33476;50.984;3.538;2023-01-15T11:37:24;100257.25;;;12.29;52.56
47716;BME280;33476;50.984;3.538;2023-01-15T11:39:55;100264.31;;;12.14;52.67
47716;BME280;33476;50.984;3.538;2023-01-15T11:42:23;100241.56;;;11.88;53.53
47716;BME280;33476;50.984;3.538;2023-01-15T11:45:16;100240.34;;;11.50;54.41
47716;BME280;33476;50.984;3.538;2023-01-15T11:48:00;100245.34;;;11.11;55.82
47716;BME280;33476;50.984;3.538;2023-01-15T11:51:01;100241.75;;;10.97;56.29
47716;BME280;33476;50.984;3.538;2023-01-15T11:53:32;100249.59;;;10.97;56.42
47716;BME280;33476;50.984;3.538;2023-01-15T11:56:00;100251.25;;;10.84;56.70
47716;BME280;33476;50.984;3.538;2023-01-15T11:58:28;100241.41;;;11.04;56.31
47716;BME280;33476;50.984;3.538;2023-01-15T12:00:56;100245.41;;;10.95;56.45
47716;BME280;33476;50.984;3.538;2023-01-15T12:03:29;100245.75;;;10.89;56.69
47716;BME280;33476;50.984;3.538;2023-01-15T12:06:05;100257.00;;;10.75;56.77
47716;BME280;33476;50.984;3.538;2023-01-15T12:08:45;100249.88;;;10.63;57.12
47716;BME280;33476;50.984;3.538;2023-01-15T12:17:28;100229.41;;;16.47;43.51
47716;BME280;33476;50.984;3.538;2023-01-15T12:20:15;100231.72;;;15.64;45.30
47716;BME280;33476;50.984;3.538;2023-01-15T12:25:36;100222.78;;;13.14;50.13
47716;BME280;33476;50.984;3.538;2023-01-15T12:28:16;100223.84;;;12.59;51.86
47716;BME280;33476;50.984;3.538;2023-01-15T12:30:51;100222.09;;;12.33;52.45
47716;BME280;33476;50.984;3.538;2023-01-15T12:36:12;100223.38;;;11.99;53.34
47716;BME280;33476;50.984;3.538;2023-01-15T12:41:13;100203.16;;;11.60;54.08
47716;BME280;33476;50.984;3.538;2023-01-15T12:43:45;100209.59;;;11.40;54.07
47716;BME280;33476;50.984;3.538;2023-01-15T12:46:33;100214.47;;;11.17;54.65
47716;BME280;33476;50.984;3.538;2023-01-15T12:51:59;100226.81;;;10.85;55.18
47716;BME280;33476;50.984;3.538;2023-01-15T12:57:29;100244.13;;;10.72;55.56
47716;BME280;33476;50.984;3.538;2023-01-15T13:05:29;100239.97;;;10.54;56.37
47716;BME280;33476;50.984;3.538;2023-01-15T13:08:08;100238.72;;;10.45;56.04
47716;BME280;33476;50.984;3.538;2023-01-15T13:10:40;100241.94;;;10.34;56.25
47716;BME280;33476;50.984;3.538;2023-01-15T13:13:22;100244.44;;;10.20;56.84
47716;BME280;33476;50.984;3.538;2023-01-15T13:21:14;100229.94;;;9.99;57.09
47716;BME280;33476;50.984;3.538;2023-01-15T13:27:16;100261.31;;;9.81;57.83
47716;BME280;33476;50.984;3.538;2023-01-15T13:32:49;100238.34;;;9.72;58.09
47716;BME280;33476;50.984;3.538;2023-01-15T13:35:31;100243.75;;;9.69;58.20
47716;BME280;33476;50.984;3.538;2023-01-15T13:38:03;100242.72;;;9.72;58.24
47716;BME280;33476;50.984;3.538;2023-01-15T13:40:41;100226.66;;;9.79;58.53
47716;BME280;33476;50.984;3.538;2023-01-15T13:43:41;100239.72;;;9.79;58.73
47716;BME280;33476;50.984;3.538;2023-01-15T13:46:10;100237.94;;;9.80;59.01
47716;BME280;33476;50.984;3.538;2023-01-15T13:48:42;100259.81;;;9.77;59.03
47716;BME280;33476;50.984;3.538;2023-01-15T13:51:23;100258.78;;;9.64;59.66
47716;BME280;33476;50.984;3.538;2023-01-15T13:53:50;100255.16;;;9.67;59.85
47716;BME280;33476;50.984;3.538;2023-01-15T13:56:32;100249.50;;;9.58;60.28
47716;BME280;33476;50.984;3.538;2023-01-15T13:59:05;100254.41;;;9.65;60.12
47716;BME280;33476;50.984;3.538;2023-01-15T14:01:33;100252.41;;;9.70;60.43
47716;BME280;33476;50.984;3.538;2023-01-15T14:06:50;100252.53;;;9.67;60.34
47716;BME280;33476;50.984;3.538;2023-01-15T14:12:06;100261.69;;;9.58;61.00
47716;BME280;33476;50.984;3.538;2023-01-15T14:17:22;100254.75;;;9.41;61.30
47716;BME280;33476;50.984;3.538;2023-01-15T14:23:01;100261.16;;;9.51;61.38
47716;BME280;33476;50.984;3.538;2023-01-15T14:31:22;100258.66;;;9.50;61.08
47716;BME280;33476;50.984;3.538;2023-01-15T14:37:06;100253.25;;;9.37;60.91
47716;BME280;33476;50.984;3.538;2023-01-15T14:39:52;100265.44;;;9.37;61.13
47716;BME280;33476;50.984;3.538;2023-01-15T14:45:21;100244.91;;;9.31;61.55
47716;BME280;33476;50.984;3.538;2023-01-15T14:47:54;100260.69;;;9.27;61.50
47716;BME280;33476;50.984;3.538;2023-01-15T14:50:42;100271.97;;;9.28;61.71
47716;BME280;33476;50.984;3.538;2023-01-15T14:55:52;100268.22;;;9.16;61.51
47716;BME280;33476;50.984;3.538;2023-01-15T15:03:53;100276.56;;;9.23;61.72
47716;BME280;33476;50.984;3.538;2023-01-15T15:06:21;100261.75;;;9.23;61.79